sensor_id;sensor_type;location;lat;lon;timestamp;temperature;humidity
1137;DHT22;557;48.466;7.950;2023-09-19T00:00:56;16.70;99.90
1137;DHT22;557;48.466;7.950;2023-09-19T00:03:43;16.70;99.90
1137;DHT22;557;48.466;7.950;2023-09-19T00:06:28;16.70;99.90
1137;DHT22;557;48.466;7.950;2023-09-19T00:09:15;16.70;99.90
1137;DHT22;557;48.466;7.950;2023-09-19T00:12:00;16.70;99.90
1137;DHT22;557;48.466;7.950;2023-09-19T00:14:47;16.70;99.90
1137;DHT22;557;48.466;7.950;2023-09-19T00:17:32;16.70;99.90
1137;DHT22;557;48.466;7.950;2023-09-19T00:20:21;16.70;99.90
1137;DHT22;557;48.466;7.950;2023-09-19T00:23:07;16.70;99.90
1137;DHT22;557;48.466;7.950;2023-09-19T00:25:53;16.70;99.90
1137;DHT22;557;48.466;7.950;2023-09-19T00:28:41;16.80;99.90
1137;DHT22;557;48.466;7.950;2023-09-19T00:31:27;16.80;99.90
1137;DHT22;557;48.466;7.950;2023-09-19T00:34:14;16.80;99.90
1137;DHT22;557;48.466;7.950;2023-09-19T00:37:02;16.80;99.90
1137;DHT22;557;48.466;7.950;2023-09-19T00:39:48;16.70;99.90
1137;DHT22;557;48.466;7.950;2023-09-19T00:42:34;16.80;99.90
1137;DHT22;557;48.466;7.950;2023-09-19T00:45:22;16.70;99.90
1137;DHT22;557;48.466;7.950;2023-09-19T00:48:08;16.80;99.90
1137;DHT22;557;48.466;7.950;2023-09-19T00:50:57;16.70;99.90
1137;DHT22;557;48.466;7.950;2023-09-19T00:53:46;16.80;99.90
1137;DHT22;557;48.466;7.950;2023-09-19T00:56:32;16.70;99.90
1137;DHT22;557;48.466;7.950;2023-09-19T00:59:18;16.70;99.90
1137;DHT22;557;48.466;7.950;2023-09-19T01:02:03;16.70;99.90
1137;DHT22;557;48.466;7.950;2023-09-19T01:04:49;16.70;99.90
1137;DHT22;557;48.466;7.950;2023-09-19T01:07:35;16.70;99.90
1137;DHT22;557;48.466;7.950;2023-09-19T01:10:23;16.70;99.90
1137;DHT22;557;48.466;7.950;2023-09-19T01:13:13;16.70;99.90
1137;DHT22;557;48.466;7.950;2023-09-19T01:16:09;16.80;99.90
1137;DHT22;557;48.466;7.950;2023-09-19T01:19:05;16.80;99.90
1137;DHT22;557;48.466;7.950;2023-09-19T01:21:57;16.80;99.90
1137;DHT22;557;48.466;7.950;2023-09-19T01:28:21;16.80;99.90
1137;DHT22;557;48.466;7.950;2023-09-19T01:31:14;16.70;99.90
1137;DHT22;557;48.466;7.950;2023-09-19T01:34:01;16.70;99.90
1137;DHT22;557;48.466;7.950;2023-09-19T01:36:48;16.80;99.90
1137;DHT22;557;48.466;7.950;2023-09-19T01:39:33;16.80;99.90
1137;DHT22;557;48.466;7.950;2023-09-19T01:42:27;16.90;99.90
1137;DHT22;557;48.466;7.950;2023-09-19T01:45:25;16.80;99.90
1137;DHT22;557;48.466;7.950;2023-09-19T01:48:25;16.90;99.90
1137;DHT22;557;48.466;7.950;2023-09-19T01:51:21;16.90;99.90
1137;DHT22;557;48.466;7.950;2023-09-19T01:54:12;16.90;99.90
1137;DHT22;557;48.466;7.950;2023-09-19T01:57:02;16.90;99.90
1137;DHT22;557;48.466;7.950;2023-09-19T01:59:54;17.00;99.90
1137;DHT22;557;48.466;7.950;2023-09-19T02:02:45;17.00;99.90
1137;DHT22;557;48.466;7.950;2023-09-19T02:05:33;17.10;99.90
1137;DHT22;557;48.466;7.950;2023-09-19T02:08:19;17.00;99.90
1137;DHT22;557;48.466;7.950;2023-09-19T02:11:05;17.00;99.90
1137;DHT22;557;48.466;7.950;2023-09-19T02:13:51;17.00;99.90
1137;DHT22;557;48.466;7.950;2023-09-19T02:16:38;17.00;99.90
1137;DHT22;557;48.466;7.950;2023-09-19T02:19:24;17.00;99.90
1137;DHT22;557;48.466;7.950;2023-09-19T02:22:11;16.90;99.90
1137;DHT22;557;48.466;7.950;2023-09-19T02:24:56;16.90;99.90
1137;DHT22;557;48.466;7.950;2023-09-19T02:27:44;16.90;99.90
1137;DHT22;557;48.466;7.950;2023-09-19T02:30:30;17.00;99.90
1137;DHT22;557;48.466;7.950;2023-09-19T02:33:15;17.00;99.90
1137;DHT22;557;48.466;7.950;2023-09-19T02:36:01;17.00;99.90
1137;DHT22;557;48.466;7.950;2023-09-19T02:38:49;16.90;99.90
1137;DHT22;557;48.466;7.950;2023-09-19T02:41:35;16.90;99.90
1137;DHT22;557;48.466;7.950;2023-09-19T02:44:20;16.90;99.90
1137;DHT22;557;48.466;7.950;2023-09-19T02:47:08;16.90;99.90
1137;DHT22;557;48.466;7.950;2023-09-19T02:49:53;16.90;99.90
1137;DHT22;557;48.466;7.950;2023-09-19T02:52:41;16.90;99.90
1137;DHT22;557;48.466;7.950;2023-09-19T02:55:30;16.90;99.90
1137;DHT22;557;48.466;7.950;2023-09-19T02:58:16;16.90;99.90
1137;DHT22;557;48.466;7.950;2023-09-19T03:01:08;16.90;99.90
1137;DHT22;557;48.466;7.950;2023-09-19T03:03:55;16.90;99.90
1137;DHT22;557;48.466;7.950;2023-09-19T03:06:41;16.90;99.90
1137;DHT22;557;48.466;7.950;2023-09-19T03:09:27;16.80;99.90
1137;DHT22;557;48.466;7.950;2023-09-19T03:12:13;16.80;99.90
1137;DHT22;557;48.466;7.950;2023-09-19T03:15:00;16.90;99.90
1137;DHT22;557;48.466;7.950;2023-09-19T03:17:46;16.80;99.90
1137;DHT22;557;48.466;7.950;2023-09-19T03:20:32;16.90;99.90
1137;DHT22;557;48.466;7.950;2023-09-19T03:23:18;16.80;99.90
1137;DHT22;557;48.466;7.950;2023-09-19T03:26:04;16.80;99.90
1137;DHT22;557;48.466;7.950;2023-09-19T03:28:51;16.90;99.90
1137;DHT22;557;48.466;7.950;2023-09-19T03:31:37;16.80;99.90
1137;DHT22;557;48.466;7.950;2023-09-19T03:34:23;16.80;99.90
1137;DHT22;557;48.466;7.950;2023-09-19T03:37:09;16.80;99.90
1137;DHT22;557;48.466;7.950;2023-09-19T03:39:55;16.90;99.90
1137;DHT22;557;48.466;7.950;2023-09-19T03:42:41;16.90;99.90
1137;DHT22;557;48.466;7.950;2023-09-19T03:45:28;16.90;99.90
1137;DHT22;557;48.466;7.950;2023-09-19T03:48:14;16.90;99.90
1137;DHT22;557;48.466;7.950;2023-09-19T03:51:00;17.00;99.90
1137;DHT22;557;48.466;7.950;2023-09-19T03:53:46;17.00;99.90
1137;DHT22;557;48.466;7.950;2023-09-19T03:56:33;17.00;99.90
1137;DHT22;557;48.466;7.950;2023-09-19T03:59:19;17.00;99.90
1137;DHT22;557;48.466;7.950;2023-09-19T04:02:05;17.00;99.90
1137;DHT22;557;48.466;7.950;2023-09-19T04:04:56;17.00;99.90
1137;DHT22;557;48.466;7.950;2023-09-19T04:07:41;17.00;99.90
1137;DHT22;557;48.466;7.950;2023-09-19T04:10:26;17.00;99.90
1137;DHT22;557;48.466;7.950;2023-09-19T04:13:12;17.00;99.90
1137;DHT22;557;48.466;7.950;2023-09-19T04:15:58;17.00;99.90
1137;DHT22;557;48.466;7.950;2023-09-19T04:18:45;17.00;99.90
1137;DHT22;557;48.466;7.950;2023-09-19T04:21:30;16.90;99.90
1137;DHT22;557;48.466;7.950;2023-09-19T04:27:04;16.80;99.90
1137;DHT22;557;48.466;7.950;2023-09-19T04:29:49;16.70;99.90
1137;DHT22;557;48.466;7.950;2023-09-19T04:32:37;16.70;99.90
1137;DHT22;557;48.466;7.950;2023-09-19T04:35:26;16.70;99.90
1137;DHT22;557;48.466;7.950;2023-09-19T04:38:13;16.80;99.90
1137;DHT22;557;48.466;7.950;2023-09-19T04:40:59;16.70;99.90
1137;DHT22;557;48.466;7.950;2023-09-19T04:43:45;16.80;99.90
1137;DHT22;557;48.466;7.950;2023-09-19T04:46:30;16.70;99.90
1137;DHT22;557;48.466;7.950;2023-09-19T04:49:16;16.70;99.90
1137;DHT22;557;48.466;7.950;2023-09-19T04:52:04;16.80;99.90
1137;DHT22;557;48.466;7.950;2023-09-19T04:54:50;16.70;99.90
1137;DHT22;557;48.466;7.950;2023-09-19T04:57:36;16.80;99.90
1137;DHT22;557;48.466;7.950;2023-09-19T05:00:23;16.70;99.90
1137;DHT22;557;48.466;7.950;2023-09-19T05:03:09;16.60;99.90
1137;DHT22;557;48.466;7.950;2023-09-19T05:05:55;16.70;99.90
1137;DHT22;557;48.466;7.950;2023-09-19T05:08:41;16.60;99.90
1137;DHT22;557;48.466;7.950;2023-09-19T05:11:27;16.70;99.90
1137;DHT22;557;48.466;7.950;2023-09-19T05:14:14;16.60;99.90
1137;DHT22;557;48.466;7.950;2023-09-19T05:17:00;16.60;99.90
1137;DHT22;557;48.466;7.950;2023-09-19T05:19:48;16.60;99.90
1137;DHT22;557;48.466;7.950;2023-09-19T05:22:33;16.50;99.90
1137;DHT22;557;48.466;7.950;2023-09-19T05:25:20;16.60;99.90
1137;DHT22;557;48.466;7.950;2023-09-19T05:28:06;16.60;99.90
1137;DHT22;557;48.466;7.950;2023-09-19T05:30:52;16.60;99.90
1137;DHT22;557;48.466;7.950;2023-09-19T05:33:38;16.60;99.90
1137;DHT22;557;48.466;7.950;2023-09-19T05:36:24;16.60;99.90
1137;DHT22;557;48.466;7.950;2023-09-19T05:39:09;16.60;99.90
1137;DHT22;557;48.466;7.950;2023-09-19T05:41:56;16.70;99.90
1137;DHT22;557;48.466;7.950;2023-09-19T05:44:42;16.80;99.90
1137;DHT22;557;48.466;7.950;2023-09-19T05:47:27;16.80;99.90
1137;DHT22;557;48.466;7.950;2023-09-19T05:50:13;16.80;99.90
1137;DHT22;557;48.466;7.950;2023-09-19T05:52:59;17.00;99.90
1137;DHT22;557;48.466;7.950;2023-09-19T05:55:45;16.90;99.90
1137;DHT22;557;48.466;7.950;2023-09-19T05:58:32;17.00;99.90
1137;DHT22;557;48.466;7.950;2023-09-19T06:01:18;17.00;99.90
1137;DHT22;557;48.466;7.950;2023-09-19T06:04:03;17.00;99.90
1137;DHT22;557;48.466;7.950;2023-09-19T06:06:49;17.00;99.90
1137;DHT22;557;48.466;7.950;2023-09-19T06:09:35;17.00;99.90
1137;DHT22;557;48.466;7.950;2023-09-19T06:12:20;17.00;99.90
1137;DHT22;557;48.466;7.950;2023-09-19T06:15:08;17.10;99.90
1137;DHT22;557;48.466;7.950;2023-09-19T06:17:56;17.10;99.90
1137;DHT22;557;48.466;7.950;2023-09-19T06:20:44;17.10;99.90
1137;DHT22;557;48.466;7.950;2023-09-19T06:23:29;17.10;99.90
1137;DHT22;557;48.466;7.950;2023-09-19T06:26:15;17.10;99.90
1137;DHT22;557;48.466;7.950;2023-09-19T06:29:01;17.10;99.90
1137;DHT22;557;48.466;7.950;2023-09-19T06:31:53;17.20;99.90
1137;DHT22;557;48.466;7.950;2023-09-19T06:34:39;17.20;99.90
1137;DHT22;557;48.466;7.950;2023-09-19T06:37:27;17.30;99.90
1137;DHT22;557;48.466;7.950;2023-09-19T06:40:14;17.40;99.90
1137;DHT22;557;48.466;7.950;2023-09-19T06:42:59;17.40;99.90
1137;DHT22;557;48.466;7.950;2023-09-19T06:45:46;17.40;99.90
1137;DHT22;557;48.466;7.950;2023-09-19T06:48:33;17.40;99.90
1137;DHT22;557;48.466;7.950;2023-09-19T06:51:19;17.30;99.90
1137;DHT22;557;48.466;7.950;2023-09-19T06:54:05;17.30;99.90
1137;DHT22;557;48.466;7.950;2023-09-19T06:56:50;17.30;99.90
1137;DHT22;557;48.466;7.950;2023-09-19T06:59:36;17.40;99.90
1137;DHT22;557;48.466;7.950;2023-09-19T07:02:23;17.50;99.90
1137;DHT22;557;48.466;7.950;2023-09-19T07:05:10;17.50;99.90
1137;DHT22;557;48.466;7.950;2023-09-19T07:07:55;17.50;99.90
1137;DHT22;557;48.466;7.950;2023-09-19T07:10:43;17.50;99.90
1137;DHT22;557;48.466;7.950;2023-09-19T07:13:32;17.50;99.90
1137;DHT22;557;48.466;7.950;2023-09-19T07:16:17;17.50;99.90
1137;DHT22;557;48.466;7.950;2023-09-19T07:19:11;17.50;99.90
1137;DHT22;557;48.466;7.950;2023-09-19T07:22:01;17.50;99.90
1137;DHT22;557;48.466;7.950;2023-09-19T07:24:46;17.60;99.90
1137;DHT22;557;48.466;7.950;2023-09-19T07:27:33;17.70;99.90
1137;DHT22;557;48.466;7.950;2023-09-19T07:30:19;17.80;99.90
1137;DHT22;557;48.466;7.950;2023-09-19T07:33:05;17.90;99.90
1137;DHT22;557;48.466;7.950;2023-09-19T07:35:50;18.10;99.90
1137;DHT22;557;48.466;7.950;2023-09-19T07:38:37;18.20;99.90
1137;DHT22;557;48.466;7.950;2023-09-19T07:41:23;18.30;99.90
1137;DHT22;557;48.466;7.950;2023-09-19T07:44:09;18.40;65.90
1137;DHT22;557;48.466;7.950;2023-09-19T07:46:55;18.50;51.80
1137;DHT22;557;48.466;7.950;2023-09-19T07:49:41;18.60;91.50
1137;DHT22;557;48.466;7.950;2023-09-19T07:52:26;18.60;57.90
1137;DHT22;557;48.466;7.950;2023-09-19T07:55:13;18.70;37.10
1137;DHT22;557;48.466;7.950;2023-09-19T07:58:01;18.80;1.00
1137;DHT22;557;48.466;7.950;2023-09-19T08:00:48;18.90;1.70
1137;DHT22;557;48.466;7.950;2023-09-19T08:03:34;19.00;1.00
1137;DHT22;557;48.466;7.950;2023-09-19T08:06:24;19.00;1.00
1137;DHT22;557;48.466;7.950;2023-09-19T08:09:13;19.20;1.00
1137;DHT22;557;48.466;7.950;2023-09-19T08:12:06;19.20;1.00
1137;DHT22;557;48.466;7.950;2023-09-19T08:14:54;19.10;1.00
1137;DHT22;557;48.466;7.950;2023-09-19T08:17:41;19.10;1.00
1137;DHT22;557;48.466;7.950;2023-09-19T08:20:26;19.20;1.00
1137;DHT22;557;48.466;7.950;2023-09-19T08:23:12;19.50;1.00
1137;DHT22;557;48.466;7.950;2023-09-19T08:25:58;19.70;1.00
1137;DHT22;557;48.466;7.950;2023-09-19T08:28:48;19.70;1.00
1137;DHT22;557;48.466;7.950;2023-09-19T08:31:44;19.60;1.00
1137;DHT22;557;48.466;7.950;2023-09-19T08:34:33;19.60;1.00
1137;DHT22;557;48.466;7.950;2023-09-19T08:37:23;19.80;1.00
1137;DHT22;557;48.466;7.950;2023-09-19T08:40:12;19.70;1.00
1137;DHT22;557;48.466;7.950;2023-09-19T08:43:04;19.90;1.00
1137;DHT22;557;48.466;7.950;2023-09-19T08:45:53;20.00;1.00
1137;DHT22;557;48.466;7.950;2023-09-19T08:48:45;20.10;1.00
1137;DHT22;557;48.466;7.950;2023-09-19T08:51:39;20.40;1.00
1137;DHT22;557;48.466;7.950;2023-09-19T08:54:35;20.60;1.00
1137;DHT22;557;48.466;7.950;2023-09-19T08:57:23;20.70;1.00
1137;DHT22;557;48.466;7.950;2023-09-19T09:00:10;20.70;1.00
1137;DHT22;557;48.466;7.950;2023-09-19T09:03:01;20.60;1.00
1137;DHT22;557;48.466;7.950;2023-09-19T09:05:50;20.80;99.90
1137;DHT22;557;48.466;7.950;2023-09-19T09:08:36;21.10;99.90
1137;DHT22;557;48.466;7.950;2023-09-19T09:11:23;21.50;99.90
1137;DHT22;557;48.466;7.950;2023-09-19T09:14:09;21.50;1.00
1137;DHT22;557;48.466;7.950;2023-09-19T09:16:55;21.50;1.00
1137;DHT22;557;48.466;7.950;2023-09-19T09:19:44;21.50;1.00
1137;DHT22;557;48.466;7.950;2023-09-19T09:22:29;21.40;30.20
1137;DHT22;557;48.466;7.950;2023-09-19T09:25:15;21.20;1.00
1137;DHT22;557;48.466;7.950;2023-09-19T09:28:03;21.20;1.00
1137;DHT22;557;48.466;7.950;2023-09-19T09:30:49;21.10;1.00
1137;DHT22;557;48.466;7.950;2023-09-19T09:33:35;21.00;99.90
1137;DHT22;557;48.466;7.950;2023-09-19T09:36:35;20.70;1.00
1137;DHT22;557;48.466;7.950;2023-09-19T09:39:30;20.70;1.00
1137;DHT22;557;48.466;7.950;2023-09-19T09:42:29;20.80;1.00
1137;DHT22;557;48.466;7.950;2023-09-19T09:45:18;21.10;99.90
1137;DHT22;557;48.466;7.950;2023-09-19T09:48:12;21.50;99.90
1137;DHT22;557;48.466;7.950;2023-09-19T09:50:59;21.90;99.90
1137;DHT22;557;48.466;7.950;2023-09-19T09:53:49;22.00;99.90
1137;DHT22;557;48.466;7.950;2023-09-19T09:56:34;22.10;1.00
1137;DHT22;557;48.466;7.950;2023-09-19T09:59:50;22.20;1.00
1137;DHT22;557;48.466;7.950;2023-09-19T10:02:38;21.90;1.00
1137;DHT22;557;48.466;7.950;2023-09-19T10:05:25;21.40;1.00
1137;DHT22;557;48.466;7.950;2023-09-19T10:08:24;21.40;1.00
1137;DHT22;557;48.466;7.950;2023-09-19T10:11:17;21.50;98.10
1137;DHT22;557;48.466;7.950;2023-09-19T10:14:05;21.10;99.90
1137;DHT22;557;48.466;7.950;2023-09-19T10:16:54;21.40;1.00
1137;DHT22;557;48.466;7.950;2023-09-19T10:19:51;21.70;1.00
1137;DHT22;557;48.466;7.950;2023-09-19T10:22:42;21.80;99.90
1137;DHT22;557;48.466;7.950;2023-09-19T10:25:29;22.10;1.00
1137;DHT22;557;48.466;7.950;2023-09-19T10:28:18;22.20;1.00
1137;DHT22;557;48.466;7.950;2023-09-19T10:31:06;22.30;1.00
1137;DHT22;557;48.466;7.950;2023-09-19T10:33:55;22.70;1.00
1137;DHT22;557;48.466;7.950;2023-09-19T10:36:45;22.60;1.00
1137;DHT22;557;48.466;7.950;2023-09-19T10:39:32;22.20;1.00
1137;DHT22;557;48.466;7.950;2023-09-19T10:42:19;22.40;1.00
1137;DHT22;557;48.466;7.950;2023-09-19T10:45:08;23.10;1.00
1137;DHT22;557;48.466;7.950;2023-09-19T10:47:57;23.70;1.00
1137;DHT22;557;48.466;7.950;2023-09-19T10:50:46;24.10;1.00
1137;DHT22;557;48.466;7.950;2023-09-19T10:53:41;24.30;1.00
1137;DHT22;557;48.466;7.950;2023-09-19T10:56:31;24.40;1.00
1137;DHT22;557;48.466;7.950;2023-09-19T10:59:21;24.00;1.00
1137;DHT22;557;48.466;7.950;2023-09-19T11:02:17;23.90;1.00
1137;DHT22;557;48.466;7.950;2023-09-19T11:05:11;23.60;1.00
1137;DHT22;557;48.466;7.950;2023-09-19T11:07:57;24.10;1.00
1137;DHT22;557;48.466;7.950;2023-09-19T11:10:44;24.70;99.90
1137;DHT22;557;48.466;7.950;2023-09-19T11:13:30;24.50;99.90
1137;DHT22;557;48.466;7.950;2023-09-19T11:16:19;24.40;99.90
1137;DHT22;557;48.466;7.950;2023-09-19T11:19:09;23.70;99.90
1137;DHT22;557;48.466;7.950;2023-09-19T11:21:55;22.90;99.90
1137;DHT22;557;48.466;7.950;2023-09-19T11:24:40;22.70;1.00
1137;DHT22;557;48.466;7.950;2023-09-19T11:27:26;23.30;99.90
1137;DHT22;557;48.466;7.950;2023-09-19T11:30:26;23.30;99.90
1137;DHT22;557;48.466;7.950;2023-09-19T11:33:19;23.60;99.90
1137;DHT22;557;48.466;7.950;2023-09-19T11:36:10;23.90;99.90
1137;DHT22;557;48.466;7.950;2023-09-19T11:38:59;24.00;99.90
1137;DHT22;557;48.466;7.950;2023-09-19T11:41:53;23.30;99.90
1137;DHT22;557;48.466;7.950;2023-09-19T11:44:40;23.00;99.90
1137;DHT22;557;48.466;7.950;2023-09-19T11:47:26;23.90;99.90
1137;DHT22;557;48.466;7.950;2023-09-19T11:50:17;24.30;99.90
1137;DHT22;557;48.466;7.950;2023-09-19T11:53:06;23.60;99.90
1137;DHT22;557;48.466;7.950;2023-09-19T11:55:54;23.40;99.90
1137;DHT22;557;48.466;7.950;2023-09-19T11:58:41;24.00;99.90
1137;DHT22;557;48.466;7.950;2023-09-19T12:01:30;24.60;99.90
1137;DHT22;557;48.466;7.950;2023-09-19T12:04:18;25.10;99.90
1137;DHT22;557;48.466;7.950;2023-09-19T12:07:07;25.50;1.00
1137;DHT22;557;48.466;7.950;2023-09-19T12:10:05;25.50;1.00
1137;DHT22;557;48.466;7.950;2023-09-19T12:12:55;25.60;99.90
1137;DHT22;557;48.466;7.950;2023-09-19T12:15:44;25.30;99.90
1137;DHT22;557;48.466;7.950;2023-09-19T12:18:31;25.60;99.90
1137;DHT22;557;48.466;7.950;2023-09-19T12:21:27;25.80;99.90
1137;DHT22;557;48.466;7.950;2023-09-19T12:24:16;25.80;99.90
1137;DHT22;557;48.466;7.950;2023-09-19T12:27:06;25.90;99.90
1137;DHT22;557;48.466;7.950;2023-09-19T12:29:53;25.50;99.90
1137;DHT22;557;48.466;7.950;2023-09-19T12:32:39;25.60;99.90
1137;DHT22;557;48.466;7.950;2023-09-19T12:35:29;25.40;99.90
1137;DHT22;557;48.466;7.950;2023-09-19T12:38:25;25.30;99.90
1137;DHT22;557;48.466;7.950;2023-09-19T12:41:12;25.20;99.90
1137;DHT22;557;48.466;7.950;2023-09-19T12:44:01;25.50;99.90
1137;DHT22;557;48.466;7.950;2023-09-19T12:46:54;25.70;99.90
1137;DHT22;557;48.466;7.950;2023-09-19T12:50:09;25.90;99.90
1137;DHT22;557;48.466;7.950;2023-09-19T12:52:59;26.20;99.90
1137;DHT22;557;48.466;7.950;2023-09-19T12:55:44;26.20;99.90
1137;DHT22;557;48.466;7.950;2023-09-19T12:58:31;26.10;99.90
1137;DHT22;557;48.466;7.950;2023-09-19T13:01:19;26.20;97.40
1137;DHT22;557;48.466;7.950;2023-09-19T13:04:14;26.00;94.70
1137;DHT22;557;48.466;7.950;2023-09-19T13:07:02;26.10;94.10
1137;DHT22;557;48.466;7.950;2023-09-19T13:10:03;26.10;96.60
1137;DHT22;557;48.466;7.950;2023-09-19T13:13:24;25.90;93.70
1137;DHT22;557;48.466;7.950;2023-09-19T13:16:11;26.50;97.50
1137;DHT22;557;48.466;7.950;2023-09-19T13:19:04;26.50;94.20
1137;DHT22;557;48.466;7.950;2023-09-19T13:21:50;26.20;89.00
1137;DHT22;557;48.466;7.950;2023-09-19T13:24:38;26.40;91.10
1137;DHT22;557;48.466;7.950;2023-09-19T13:27:24;26.50;93.70
1137;DHT22;557;48.466;7.950;2023-09-19T13:30:12;26.80;86.80
1137;DHT22;557;48.466;7.950;2023-09-19T13:33:07;26.80;90.30
1137;DHT22;557;48.466;7.950;2023-09-19T13:35:55;26.90;82.30
1137;DHT22;557;48.466;7.950;2023-09-19T13:38:42;27.20;86.50
1137;DHT22;557;48.466;7.950;2023-09-19T13:41:28;27.00;80.90
1137;DHT22;557;48.466;7.950;2023-09-19T13:44:16;27.10;87.00
1137;DHT22;557;48.466;7.950;2023-09-19T13:47:02;27.40;78.30
1137;DHT22;557;48.466;7.950;2023-09-19T13:49:57;27.00;71.80
1137;DHT22;557;48.466;7.950;2023-09-19T13:52:44;26.70;69.70
1137;DHT22;557;48.466;7.950;2023-09-19T13:55:31;26.50;65.80
1137;DHT22;557;48.466;7.950;2023-09-19T13:58:17;26.60;66.20
1137;DHT22;557;48.466;7.950;2023-09-19T14:01:02;26.30;58.30
1137;DHT22;557;48.466;7.950;2023-09-19T14:03:48;25.90;55.10
1137;DHT22;557;48.466;7.950;2023-09-19T14:06:35;26.10;59.70
1137;DHT22;557;48.466;7.950;2023-09-19T14:09:23;25.30;53.80
1137;DHT22;557;48.466;7.950;2023-09-19T14:12:08;25.20;59.70
1137;DHT22;557;48.466;7.950;2023-09-19T14:14:54;26.00;65.70
1137;DHT22;557;48.466;7.950;2023-09-19T14:17:40;26.50;64.70
1137;DHT22;557;48.466;7.950;2023-09-19T14:20:27;26.70;58.50
1137;DHT22;557;48.466;7.950;2023-09-19T14:23:13;26.80;64.10
1137;DHT22;557;48.466;7.950;2023-09-19T14:26:02;26.90;57.30
1137;DHT22;557;48.466;7.950;2023-09-19T14:28:49;26.80;56.60
1137;DHT22;557;48.466;7.950;2023-09-19T14:31:37;26.80;57.50
1137;DHT22;557;48.466;7.950;2023-09-19T14:34:24;26.80;55.40
1137;DHT22;557;48.466;7.950;2023-09-19T14:37:09;26.50;52.80
1137;DHT22;557;48.466;7.950;2023-09-19T14:39:55;26.80;53.30
1137;DHT22;557;48.466;7.950;2023-09-19T14:42:42;26.60;52.40
1137;DHT22;557;48.466;7.950;2023-09-19T14:45:28;26.70;51.10
1137;DHT22;557;48.466;7.950;2023-09-19T14:48:15;26.50;48.70
1137;DHT22;557;48.466;7.950;2023-09-19T14:51:04;26.40;47.60
1137;DHT22;557;48.466;7.950;2023-09-19T14:53:53;26.60;49.30
1137;DHT22;557;48.466;7.950;2023-09-19T14:56:39;26.40;49.10
1137;DHT22;557;48.466;7.950;2023-09-19T14:59:25;26.40;47.60
1137;DHT22;557;48.466;7.950;2023-09-19T15:02:11;26.20;44.50
1137;DHT22;557;48.466;7.950;2023-09-19T15:04:58;26.00;43.10
1137;DHT22;557;48.466;7.950;2023-09-19T15:07:46;26.00;45.10
1137;DHT22;557;48.466;7.950;2023-09-19T15:10:31;26.10;44.30
1137;DHT22;557;48.466;7.950;2023-09-19T15:13:17;26.10;44.30
1137;DHT22;557;48.466;7.950;2023-09-19T15:16:05;25.90;43.30
1137;DHT22;557;48.466;7.950;2023-09-19T15:18:53;25.60;40.70
1137;DHT22;557;48.466;7.950;2023-09-19T15:21:39;25.40;41.30
1137;DHT22;557;48.466;7.950;2023-09-19T15:24:24;25.40;43.30
1137;DHT22;557;48.466;7.950;2023-09-19T15:27:11;25.50;47.40
1137;DHT22;557;48.466;7.950;2023-09-19T15:29:56;25.50;47.70
1137;DHT22;557;48.466;7.950;2023-09-19T15:32:43;25.90;48.80
1137;DHT22;557;48.466;7.950;2023-09-19T15:35:29;25.80;47.70
1137;DHT22;557;48.466;7.950;2023-09-19T15:38:15;25.60;48.00
1137;DHT22;557;48.466;7.950;2023-09-19T15:41:00;25.10;46.00
1137;DHT22;557;48.466;7.950;2023-09-19T15:43:46;24.90;46.10
1137;DHT22;557;48.466;7.950;2023-09-19T15:46:32;25.10;47.90
1137;DHT22;557;48.466;7.950;2023-09-19T15:49:21;25.20;47.10
1137;DHT22;557;48.466;7.950;2023-09-19T15:52:07;25.40;52.30
1137;DHT22;557;48.466;7.950;2023-09-19T15:54:53;25.50;50.30
1137;DHT22;557;48.466;7.950;2023-09-19T15:58:04;25.40;51.40
1137;DHT22;557;48.466;7.950;2023-09-19T16:00:50;24.80;48.90
1137;DHT22;557;48.466;7.950;2023-09-19T16:03:37;24.80;48.90
1137;DHT22;557;48.466;7.950;2023-09-19T16:06:26;24.80;49.10
1137;DHT22;557;48.466;7.950;2023-09-19T16:09:11;24.70;46.40
1137;DHT22;557;48.466;7.950;2023-09-19T16:11:58;24.60;45.40
1137;DHT22;557;48.466;7.950;2023-09-19T16:14:43;24.70;50.40
1137;DHT22;557;48.466;7.950;2023-09-19T16:17:29;24.90;49.50
1137;DHT22;557;48.466;7.950;2023-09-19T16:20:14;24.70;48.50
1137;DHT22;557;48.466;7.950;2023-09-19T16:23:02;24.60;46.60
1137;DHT22;557;48.466;7.950;2023-09-19T16:25:48;24.50;45.70
1137;DHT22;557;48.466;7.950;2023-09-19T16:28:34;24.50;48.70
1137;DHT22;557;48.466;7.950;2023-09-19T16:31:25;24.60;52.80
1137;DHT22;557;48.466;7.950;2023-09-19T16:34:12;24.90;53.30
1137;DHT22;557;48.466;7.950;2023-09-19T16:37:00;24.70;53.50
1137;DHT22;557;48.466;7.950;2023-09-19T16:39:47;24.30;51.50
1137;DHT22;557;48.466;7.950;2023-09-19T16:42:33;24.00;52.20
1137;DHT22;557;48.466;7.950;2023-09-19T16:45:18;23.90;57.80
1137;DHT22;557;48.466;7.950;2023-09-19T16:48:04;23.90;62.10
1137;DHT22;557;48.466;7.950;2023-09-19T16:50:50;23.80;62.50
1137;DHT22;557;48.466;7.950;2023-09-19T16:53:36;23.60;63.30
1137;DHT22;557;48.466;7.950;2023-09-19T16:56:24;23.40;71.30
1137;DHT22;557;48.466;7.950;2023-09-19T16:59:09;23.30;87.10
1137;DHT22;557;48.466;7.950;2023-09-19T17:01:55;23.20;94.20
1137;DHT22;557;48.466;7.950;2023-09-19T17:04:42;23.10;95.10
1137;DHT22;557;48.466;7.950;2023-09-19T17:07:28;23.00;99.90
1137;DHT22;557;48.466;7.950;2023-09-19T17:10:14;22.80;99.90
1137;DHT22;557;48.466;7.950;2023-09-19T17:13:01;22.70;99.90
1137;DHT22;557;48.466;7.950;2023-09-19T17:15:47;22.60;99.90
1137;DHT22;557;48.466;7.950;2023-09-19T17:18:43;22.50;99.90
1137;DHT22;557;48.466;7.950;2023-09-19T17:21:29;22.40;99.90
1137;DHT22;557;48.466;7.950;2023-09-19T17:24:15;22.30;99.90
1137;DHT22;557;48.466;7.950;2023-09-19T17:27:04;22.20;99.90
1137;DHT22;557;48.466;7.950;2023-09-19T17:29:51;22.10;99.90
1137;DHT22;557;48.466;7.950;2023-09-19T17:32:37;22.10;99.90
1137;DHT22;557;48.466;7.950;2023-09-19T17:35:23;22.00;99.90
1137;DHT22;557;48.466;7.950;2023-09-19T17:38:08;21.90;99.90
1137;DHT22;557;48.466;7.950;2023-09-19T17:40:55;21.80;1.00
1137;DHT22;557;48.466;7.950;2023-09-19T17:43:42;21.60;1.00
1137;DHT22;557;48.466;7.950;2023-09-19T17:46:30;21.40;1.00
1137;DHT22;557;48.466;7.950;2023-09-19T17:49:20;21.20;99.90
1137;DHT22;557;48.466;7.950;2023-09-19T17:52:06;21.00;1.00
1137;DHT22;557;48.466;7.950;2023-09-19T17:54:51;20.80;99.90
1137;DHT22;557;48.466;7.950;2023-09-19T17:57:37;20.80;50.20
1137;DHT22;557;48.466;7.950;2023-09-19T18:00:25;20.60;1.00
1137;DHT22;557;48.466;7.950;2023-09-19T18:03:12;20.50;1.00
1137;DHT22;557;48.466;7.950;2023-09-19T18:05:58;20.30;1.00
1137;DHT22;557;48.466;7.950;2023-09-19T18:08:43;20.20;99.90
1137;DHT22;557;48.466;7.950;2023-09-19T18:11:29;20.00;99.90
1137;DHT22;557;48.466;7.950;2023-09-19T18:14:15;19.90;99.90
1137;DHT22;557;48.466;7.950;2023-09-19T18:17:01;19.90;99.90
1137;DHT22;557;48.466;7.950;2023-09-19T18:19:50;19.80;1.00
1137;DHT22;557;48.466;7.950;2023-09-19T18:22:35;19.70;99.90
1137;DHT22;557;48.466;7.950;2023-09-19T18:25:21;19.50;1.00
1137;DHT22;557;48.466;7.950;2023-09-19T18:28:07;19.40;99.90
1137;DHT22;557;48.466;7.950;2023-09-19T18:30:53;19.30;1.00
1137;DHT22;557;48.466;7.950;2023-09-19T18:33:39;19.20;1.00
1137;DHT22;557;48.466;7.950;2023-09-19T18:36:26;19.00;1.00
1137;DHT22;557;48.466;7.950;2023-09-19T18:39:12;19.00;1.00
1137;DHT22;557;48.466;7.950;2023-09-19T18:42:04;18.90;1.00
1137;DHT22;557;48.466;7.950;2023-09-19T18:44:50;18.80;1.00